Time;durP1;ratioP1;P1;durP2;ratioP2;P2;SDS_P1;SDS_P2;PMS_P1;PMS_P2;Temp;Humidity;BMP_temperature;BMP_pressure;BME280_temperature;BME280_humidity;BME280_pressure;Samples;Min_cycle;Max_cycle;Signal;HPM_P1;HPM_P2
2023/10/17 00:01:18;;;;;;;2.20;1.75;;;18.00;51.00;;;;;;5055620;28;20211;-80
2023/10/17 00:03:46;;;;;;;2.15;1.92;;;17.90;50.60;;;;;;5053404;28;20598;-80
2023/10/17 00:06:16;;;;;;;1.90;1.67;;;17.90;50.20;;;;;;5053524;28;20207;-80
2023/10/17 00:08:44;;;;;;;2.20;2.00;;;17.90;50.80;;;;;;5053341;28;20294;-80
2023/10/17 00:11:22;;;;;;;2.20;2.00;;;17.90;50.90;;;;;;5053773;28;20223;-80
2023/10/17 00:14:07;;;;;;;2.00;1.90;;;17.90;50.70;;;;;;5054196;28;20188;-79
2023/10/17 00:16:37;;;;;;;2.25;2.00;;;17.90;50.70;;;;;;5053117;28;20195;-79
2023/10/17 00:19:09;;;;;;;2.28;1.80;;;17.80;50.80;;;;;;5052896;28;20207;-79
2023/10/17 00:21:36;;;;;;;2.60;1.80;;;17.80;50.70;;;;;;5052962;28;20191;-79
2023/10/17 00:24:08;;;;;;;1.98;1.88;;;17.80;50.40;;;;;;5052943;28;20601;-79
2023/10/17 00:26:37;;;;;;;2.08;1.98;;;17.80;50.60;;;;;;5052956;28;20272;-79
2023/10/17 00:29:05;;;;;;;2.22;1.73;;;17.80;50.80;;;;;;5053103;28;20257;-80
2023/10/17 00:31:32;;;;;;;2.20;2.00;;;17.70;51.00;;;;;;5053023;28;20207;-80
2023/10/17 00:34:00;;;;;;;1.80;1.70;;;17.70;50.90;;;;;;5053854;28;20210;-80
2023/10/17 00:36:28;;;;;;;2.65;2.03;;;17.70;50.60;;;;;;5054223;28;20198;-80
2023/10/17 00:39:10;;;;;;;3.30;2.00;;;17.80;51.00;;;;;;5053257;28;20243;-80
2023/10/17 00:41:51;;;;;;;2.40;1.90;;;17.70;50.80;;;;;;5053128;28;20333;-80
2023/10/17 00:44:27;;;;;;;2.10;1.98;;;17.70;50.80;;;;;;5053677;28;20195;-80
2023/10/17 00:46:55;;;;;;;2.45;1.95;;;17.70;50.80;;;;;;5053437;28;20191;-80
2023/10/17 00:49:23;;;;;;;2.90;1.88;;;17.70;51.00;;;;;;5053299;28;20238;-80
2023/10/17 00:51:52;;;;;;;2.03;1.80;;;17.70;50.80;;;;;;5052918;28;20199;-78
2023/10/17 00:54:20;;;;;;;2.30;2.10;;;17.70;50.90;;;;;;5052962;28;20199;-79
2023/10/17 00:56:47;;;;;;;2.17;1.98;;;17.60;51.00;;;;;;5053023;28;20329;-79
2023/10/17 00:59:15;;;;;;;2.40;1.85;;;17.60;50.90;;;;;;5052716;28;20223;-79
2023/10/17 01:01:42;;;;;;;2.05;1.85;;;17.60;50.60;;;;;;5053660;28;20206;-79
2023/10/17 01:04:14;;;;;;;1.95;1.85;;;17.60;51.10;;;;;;5052614;28;20203;-79
2023/10/17 01:06:41;;;;;;;2.13;1.90;;;17.60;51.10;;;;;;5052341;28;20188;-79
2023/10/17 01:09:17;;;;;;;1.80;1.70;;;17.60;51.80;;;;;;5052398;28;20200;-79
2023/10/17 01:11:45;;;;;;;3.15;1.95;;;17.60;51.10;;;;;;5052488;28;20282;-79
2023/10/17 01:14:18;;;;;;;2.55;1.95;;;17.50;51.30;;;;;;5052758;28;20302;-79
2023/10/17 01:16:46;;;;;;;2.20;2.00;;;17.60;50.90;;;;;;5052774;28;20680;-79
2023/10/17 01:19:15;;;;;;;2.00;1.80;;;17.50;51.50;;;;;;5052969;28;20200;-79
2023/10/17 01:21:42;;;;;;;2.30;1.92;;;17.50;51.20;;;;;;5052615;28;20227;-79
2023/10/17 01:24:12;;;;;;;2.13;1.75;;;17.50;51.20;;;;;;5052748;28;20561;-79
2023/10/17 01:26:39;;;;;;;2.10;1.90;;;17.50;51.10;;;;;;5052387;28;20717;-79
2023/10/17 01:29:10;;;;;;;1.85;1.75;;;17.40;52.00;;;;;;5052400;28;20223;-79
2023/10/17 01:31:42;;;;;;;2.75;1.80;;;17.40;51.30;;;;;;5052599;28;20208;-79
2023/10/17 01:34:11;;;;;;;2.20;2.00;;;17.40;51.50;;;;;;5035977;28;20237;-79
2023/10/17 01:36:38;;;;;;;2.25;1.70;;;17.40;51.40;;;;;;5053089;28;20204;-79
2023/10/17 01:39:08;;;;;;;1.90;1.80;;;17.40;51.00;;;;;;5056571;28;20222;-79
2023/10/17 01:41:38;;;;;;;2.33;1.80;;;17.40;51.70;;;;;;5056057;28;20203;-79
2023/10/17 01:44:05;;;;;;;1.88;1.77;;;17.40;51.30;;;;;;5056997;28;20199;-79
2023/10/17 01:46:32;;;;;;;2.17;1.98;;;17.40;51.70;;;;;;5056919;28;20195;-79
2023/10/17 01:49:09;;;;;;;1.88;1.70;;;17.30;51.60;;;;;;5039305;28;20195;-79
2023/10/17 01:51:38;;;;;;;2.00;1.80;;;17.30;51.60;;;;;;5057558;28;20203;-79
2023/10/17 01:54:13;;;;;;;1.95;1.80;;;17.30;51.50;;;;;;5056338;28;20191;-79
2023/10/17 01:56:47;;;;;;;2.08;1.80;;;17.30;51.60;;;;;;5056557;28;20207;-79
2023/10/17 01:59:17;;;;;;;2.05;1.95;;;17.30;51.70;;;;;;5055357;28;20245;-79
2023/10/17 02:01:44;;;;;;;1.83;1.60;;;17.30;51.40;;;;;;5055373;28;20556;-79
2023/10/17 02:04:15;;;;;;;2.40;1.90;;;17.30;51.50;;;;;;5055641;28;20210;-79
2023/10/17 02:06:42;;;;;;;1.80;1.70;;;17.30;51.60;;;;;;5055388;28;20288;-79
2023/10/17 02:09:23;;;;;;;2.10;1.90;;;17.20;51.30;;;;;;5055216;28;20195;-79
2023/10/17 02:11:54;;;;;;;1.80;1.70;;;17.20;51.50;;;;;;5056255;28;20215;-79
2023/10/17 02:14:21;;;;;;;1.92;1.73;;;17.20;51.60;;;;;;5055289;28;20321;-79
2023/10/17 02:16:49;;;;;;;2.33;1.88;;;17.10;51.50;;;;;;5038721;28;20199;-79
2023/10/17 02:19:19;;;;;;;2.38;1.80;;;17.20;51.70;;;;;;5055652;28;20215;-79
2023/10/17 02:21:49;;;;;;;1.83;1.70;;;17.20;51.50;;;;;;5055182;28;20180;-79
2023/10/17 02:24:19;;;;;;;1.70;1.60;;;17.20;51.80;;;;;;5055084;28;20241;-79
2023/10/17 02:26:56;;;;;;;1.70;1.60;;;17.20;51.70;;;;;;5055607;28;20200;-79
2023/10/17 02:29:26;;;;;;;1.95;1.75;;;17.20;51.70;;;;;;5055171;28;20304;-79
2023/10/17 02:31:55;;;;;;;1.80;1.60;;;17.20;51.70;;;;;;5055507;28;20280;-79
2023/10/17 02:34:22;;;;;;;1.80;1.70;;;17.10;51.60;;;;;;5054887;28;20210;-79
2023/10/17 02:36:50;;;;;;;1.70;1.60;;;17.10;51.90;;;;;;5055236;28;20204;-79
2023/10/17 02:39:17;;;;;;;2.08;1.88;;;17.10;51.50;;;;;;5055389;28;20225;-79
2023/10/17 02:41:46;;;;;;;2.25;2.05;;;17.10;52.40;;;;;;5038995;28;20237;-79
2023/10/17 02:44:14;;;;;;;1.88;1.70;;;17.10;51.70;;;;;;5054911;28;20231;-79
2023/10/17 02:46:45;;;;;;;1.90;1.80;;;17.10;52.00;;;;;;5054989;28;20199;-79
2023/10/17 02:49:16;;;;;;;1.80;1.70;;;17.10;52.10;;;;;;5054603;28;20657;-79
2023/10/17 02:51:43;;;;;;;1.77;1.67;;;17.00;51.90;;;;;;5055783;28;20692;-79
2023/10/17 02:54:16;;;;;;;1.90;1.70;;;17.10;51.80;;;;;;5055369;28;20234;-79
2023/10/17 02:56:51;;;;;;;2.08;1.80;;;17.00;51.90;;;;;;5055394;28;20313;-79
2023/10/17 02:59:21;;;;;;;2.17;1.88;;;17.00;52.20;;;;;;5055660;28;20234;-79
2023/10/17 03:01:54;;;;;;;2.33;1.60;;;17.00;52.10;;;;;;5054720;28;20196;-79
2023/10/17 03:04:24;;;;;;;1.90;1.80;;;17.00;52.20;;;;;;5054810;28;20242;-79
2023/10/17 03:06:53;;;;;;;1.85;1.75;;;17.00;52.20;;;;;;5054651;28;20207;-79
2023/10/17 03:09:36;;;;;;;1.80;1.70;;;16.90;51.90;;;;;;5054112;28;20230;-79
2023/10/17 03:12:17;;;;;;;2.03;1.50;;;16.90;52.10;;;;;;5054411;28;20297;-79
2023/10/17 03:17:26;;;;;;;2.10;2.00;;;16.90;51.70;;;;;;5053369;28;20191;-79
2023/10/17 03:19:53;;;;;;;1.75;1.65;;;16.90;51.70;;;;;;5053911;28;20234;-78
2023/10/17 03:22:24;;;;;;;1.90;1.70;;;16.90;51.70;;;;;;5053905;28;20191;-79
2023/10/17 03:25:00;;;;;;;2.05;1.85;;;16.90;51.90;;;;;;5053868;28;20231;-79
2023/10/17 03:27:35;;;;;;;1.83;1.73;;;16.90;51.70;;;;;;5054056;28;20650;-79
2023/10/17 03:30:05;;;;;;;1.73;1.63;;;16.90;52.10;;;;;;5054098;28;20219;-79
2023/10/17 03:32:34;;;;;;;1.80;1.70;;;16.90;52.00;;;;;;5054501;28;20249;-79
2023/10/17 03:35:03;;;;;;;1.88;1.77;;;17.00;51.90;;;;;;5054006;28;20719;-79
2023/10/17 03:37:30;;;;;;;1.95;1.80;;;17.00;52.10;;;;;;5053987;28;20662;-79
2023/10/17 03:39:57;;;;;;;2.35;1.65;;;17.00;52.20;;;;;;5053695;28;20219;-79
2023/10/17 03:42:44;;;;;;;1.92;1.67;;;17.10;51.80;;;;;;5053726;28;20287;-79
2023/10/17 03:45:18;;;;;;;2.03;1.90;;;17.10;52.30;;;;;;5053782;28;20192;-79
2023/10/17 03:47:49;;;;;;;2.05;1.85;;;17.10;52.30;;;;;;5053945;28;20230;-79
2023/10/17 03:50:31;;;;;;;1.90;1.80;;;17.10;52.20;;;;;;5054356;28;20223;-79
2023/10/17 03:53:04;;;;;;;2.22;2.00;;;17.10;51.80;;;;;;5053922;28;20188;-79
2023/10/17 03:55:31;;;;;;;1.80;1.70;;;17.10;51.90;;;;;;5055363;28;20295;-79
2023/10/17 03:57:59;;;;;;;2.00;1.90;;;17.20;52.00;;;;;;5054412;28;20199;-79
2023/10/17 04:00:34;;;;;;;2.05;1.95;;;17.20;51.90;;;;;;5053452;28;20269;-79
2023/10/17 04:03:09;;;;;;;1.80;1.70;;;17.20;51.70;;;;;;5054264;28;20203;-79
2023/10/17 04:05:38;;;;;;;1.67;1.58;;;17.20;51.90;;;;;;5053971;28;20642;-79
2023/10/17 04:08:09;;;;;;;1.65;1.55;;;17.20;51.70;;;;;;5054032;28;20203;-79
2023/10/17 04:10:46;;;;;;;1.77;1.67;;;17.20;51.70;;;;;;5038152;28;20250;-79
2023/10/17 04:13:18;;;;;;;2.10;2.00;;;17.20;51.70;;;;;;5054142;28;20637;-79
2023/10/17 04:15:45;;;;;;;1.90;1.80;;;17.10;51.60;;;;;;5053498;28;20191;-79
2023/10/17 04:18:14;;;;;;;2.20;2.00;;;17.10;51.60;;;;;;5053485;28;20654;-80
2023/10/17 04:20:46;;;;;;;1.90;1.80;;;17.10;51.40;;;;;;5053309;28;20219;-80
2023/10/17 04:23:26;;;;;;;1.58;1.48;;;17.20;51.50;;;;;;5053341;28;20242;-79
2023/10/17 04:25:55;;;;;;;2.38;1.67;;;17.20;51.50;;;;;;5053561;28;20199;-79
2023/10/17 04:28:26;;;;;;;1.60;1.50;;;17.20;51.70;;;;;;5053191;28;20203;-79
2023/10/17 04:30:57;;;;;;;1.80;1.70;;;17.20;52.10;;;;;;5052973;28;20697;-79
2023/10/17 04:33:28;;;;;;;2.10;1.98;;;17.20;51.90;;;;;;5053111;28;20631;-79
2023/10/17 04:35:59;;;;;;;1.63;1.52;;;17.20;52.60;;;;;;5053370;28;20596;-79
2023/10/17 04:38:38;;;;;;;1.83;1.73;;;17.20;52.30;;;;;;5053588;28;20662;-79
2023/10/17 04:43:55;;;;;;;1.70;1.60;;;17.20;51.80;;;;;;5029966;28;20249;-79
2023/10/17 04:46:25;;;;;;;2.38;1.90;;;17.20;51.50;;;;;;5036697;28;20316;-79
2023/10/17 04:49:03;;;;;;;2.20;1.70;;;17.20;51.20;;;;;;5053087;28;20663;-79
2023/10/17 04:51:36;;;;;;;1.90;1.80;;;17.30;51.30;;;;;;5052789;28;20215;-79
2023/10/17 04:54:09;;;;;;;1.77;1.67;;;17.30;51.00;;;;;;5053356;28;20278;-79
2023/10/17 04:56:52;;;;;;;2.17;1.70;;;17.30;51.30;;;;;;5052654;28;20214;-79
2023/10/17 04:59:38;;;;;;;1.70;1.60;;;17.30;51.10;;;;;;5052423;28;20268;-79
2023/10/17 05:02:35;;;;;;;1.83;1.73;;;17.30;51.20;;;;;;5052766;28;20274;-79
2023/10/17 06:19:20;;;;;;;2.80;2.60;;;17.50;51.50;;;;;;5056383;28;20254;-79
2023/10/17 06:24:56;;;;;;;2.90;2.60;;;17.60;51.20;;;;;;5054861;28;20326;-79
2023/10/17 06:28:20;;;;;;;2.30;2.10;;;17.60;50.90;;;;;;5055169;28;20305;-79
2023/10/17 06:30:34;;;;;;;2.30;2.10;;;17.60;51.10;;;;;;5054631;28;20211;-79
2023/10/17 06:33:05;;;;;;;2.33;2.17;;;17.70;50.60;;;;;;5055014;28;20262;-79
2023/10/17 06:35:33;;;;;;;2.30;2.10;;;17.70;50.60;;;;;;5054999;28;20199;-79
2023/10/17 06:38:00;;;;;;;2.40;2.20;;;17.70;50.10;;;;;;5054986;28;20234;-79
2023/10/17 06:40:33;;;;;;;1.90;1.70;;;17.70;50.20;;;;;;5054560;28;20212;-79
2023/10/17 06:43:13;;;;;;;2.22;2.03;;;17.70;50.10;;;;;;5055171;28;20230;-79
2023/10/17 06:45:51;;;;;;;1.90;1.80;;;17.80;50.00;;;;;;5054565;28;20219;-79
2023/10/17 06:48:19;;;;;;;2.92;2.10;;;17.80;50.50;;;;;;5054834;28;20195;-79
2023/10/17 06:53:47;;;;;;;4.38;2.17;;;17.80;50.30;;;;;;5018305;28;20192;-79
2023/10/17 06:56:13;;;;;;;2.42;2.10;;;17.80;50.40;;;;;;5017646;28;20200;-79
2023/10/17 06:58:42;;;;;;;2.30;2.10;;;17.90;51.00;;;;;;5044380;28;20207;-79
2023/10/17 07:01:24;;;;;;;2.40;2.20;;;17.90;51.00;;;;;;5054471;28;20219;-79
2023/10/17 07:03:54;;;;;;;5.05;2.40;;;17.90;51.30;;;;;;5054316;28;20184;-79
2023/10/17 07:06:24;;;;;;;2.15;2.05;;;17.90;51.00;;;;;;5055152;28;20195;-79
2023/10/17 07:08:52;;;;;;;2.50;2.08;;;17.90;51.10;;;;;;5054518;28;20196;-79
2023/10/17 07:11:29;;;;;;;2.17;1.98;;;18.00;51.40;;;;;;5055606;28;20211;-79
2023/10/17 07:16:45;;;;;;;2.72;2.15;;;18.00;51.00;;;;;;5037535;28;20591;-79
2023/10/17 07:21:57;;;;;;;2.70;1.98;;;18.10;51.20;;;;;;5039011;28;20191;-79
2023/10/17 07:24:24;;;;;;;2.50;2.15;;;18.10;51.30;;;;;;5056072;28;20179;-79
2023/10/17 07:26:53;;;;;;;2.75;2.10;;;18.10;51.20;;;;;;5054592;28;20219;-79
2023/10/17 07:29:22;;;;;;;2.45;2.22;;;18.20;51.30;;;;;;5038842;28;20218;-79
2023/10/17 07:31:52;;;;;;;2.72;2.13;;;18.20;51.20;;;;;;5054130;28;20295;-79
2023/10/17 07:34:21;;;;;;;2.60;2.40;;;18.30;51.20;;;;;;5052891;28;20207;-80
2023/10/17 07:36:50;;;;;;;3.05;2.75;;;18.30;51.10;;;;;;5055464;28;20257;-79
2023/10/17 07:39:27;;;;;;;3.70;2.35;;;18.30;51.10;;;;;;5053718;28;20215;-79
2023/10/17 07:41:54;;;;;;;2.65;2.20;;;18.30;51.40;;;;;;5054276;28;20225;-79
2023/10/17 07:44:25;;;;;;;2.15;1.83;;;18.40;51.30;;;;;;5054361;28;20282;-79
2023/10/17 07:47:04;;;;;;;3.50;2.50;;;18.40;51.70;;;;;;5054407;28;20203;-79
2023/10/17 07:49:31;;;;;;;2.63;2.42;;;18.50;52.30;;;;;;5053732;28;20223;-79
2023/10/17 07:52:00;;;;;;;2.60;2.40;;;18.50;51.20;;;;;;5054752;28;20591;-78
2023/10/17 07:54:30;;;;;;;3.15;2.30;;;18.50;50.80;;;;;;5054341;28;20199;-78
2023/10/17 07:56:58;;;;;;;3.22;2.67;;;18.60;50.50;;;;;;5038217;28;20199;-78
2023/10/17 07:59:31;;;;;;;2.47;2.28;;;18.60;50.60;;;;;;5053795;28;20223;-80
2023/10/17 08:02:00;;;;;;;3.58;2.78;;;18.70;50.60;;;;;;5053825;28;20195;-80
2023/10/17 08:04:31;;;;;;;4.50;3.33;;;18.80;50.40;;;;;;5037084;28;20196;-80
2023/10/17 08:06:58;;;;;;;3.30;3.00;;;18.90;50.20;;;;;;5053016;28;20188;-78
2023/10/17 08:09:35;;;;;;;3.65;3.10;;;18.90;49.80;;;;;;5053356;28;20223;-81
2023/10/17 08:12:04;;;;;;;3.42;2.90;;;19.00;49.80;;;;;;5054245;28;20217;-80
2023/10/17 08:14:37;;;;;;;3.40;2.92;;;19.00;49.70;;;;;;5053882;28;20612;-81
2023/10/17 08:17:05;;;;;;;3.20;2.90;;;19.10;49.70;;;;;;5053709;28;20254;-81
2023/10/17 08:19:46;;;;;;;3.05;2.75;;;19.20;49.60;;;;;;5053239;28;20219;-78
2023/10/17 08:22:17;;;;;;;3.90;2.78;;;19.20;49.60;;;;;;5052923;28;20334;-79
2023/10/17 08:24:44;;;;;;;3.55;3.03;;;19.30;49.70;;;;;;5052821;28;20536;-79
2023/10/17 08:27:13;;;;;;;3.35;3.05;;;19.30;49.40;;;;;;5052849;28;20191;-79
2023/10/17 08:29:43;;;;;;;4.00;2.88;;;19.40;49.20;;;;;;5052633;28;20294;-79
2023/10/17 08:32:38;;;;;;;4.07;2.78;;;19.50;48.70;;;;;;5052990;28;20261;-79
2023/10/17 08:35:08;;;;;;;3.35;2.97;;;19.60;49.00;;;;;;5052547;28;20249;-79
2023/10/17 08:37:43;;;;;;;3.65;3.08;;;19.60;48.70;;;;;;5052479;28;20199;-79
2023/10/17 08:42:52;;;;;;;4.80;3.33;;;19.70;48.40;;;;;;5052206;28;20202;-79
2023/10/17 08:45:20;;;;;;;3.65;3.35;;;19.80;47.90;;;;;;5052681;28;20630;-79
2023/10/17 08:47:47;;;;;;;3.38;3.08;;;19.80;48.10;;;;;;5040535;28;20268;-79
2023/10/17 08:50:15;;;;;;;3.75;3.40;;;19.80;47.50;;;;;;5095171;22;20616;-82
2023/10/17 08:52:43;;;;;;;4.50;3.60;;;19.80;47.20;;;;;;5046583;28;20226;-83
2023/10/17 08:55:15;;;;;;;3.83;3.42;;;19.90;47.50;;;;;;5058125;28;20199;-82
2023/10/17 08:57:42;;;;;;;4.85;3.47;;;19.90;47.50;;;;;;5040660;28;20261;-82
2023/10/17 09:03:00;;;;;;;3.60;3.30;;;19.90;47.20;;;;;;5015311;28;20199;-82
2023/10/17 09:05:27;;;;;;;3.78;2.85;;;19.90;46.90;;;;;;5058401;28;20186;-82
2023/10/17 09:07:56;;;;;;;4.05;3.20;;;19.90;47.20;;;;;;5040422;28;20195;-82
2023/10/17 09:10:28;;;;;;;3.83;3.42;;;19.90;47.00;;;;;;5040325;28;20211;-82
2023/10/17 09:16:00;;;;;;;4.10;3.70;;;19.90;46.70;;;;;;5039645;28;20191;-82
2023/10/17 09:18:31;;;;;;;4.00;3.67;;;20.00;47.00;;;;;;5040962;28;20210;-82
2023/10/17 09:21:03;;;;;;;4.68;3.75;;;20.00;47.20;;;;;;5040462;28;20659;-82
2023/10/17 09:23:31;;;;;;;4.13;3.72;;;20.00;46.80;;;;;;5082144;23;20226;-80
2023/10/17 09:26:01;;;;;;;3.47;3.17;;;20.00;47.00;;;;;;5042913;28;20213;-80
2023/10/17 09:28:28;;;;;;;3.72;3.42;;;20.10;46.90;;;;;;5059263;28;20209;-80
2023/10/17 09:31:02;;;;;;;5.00;3.92;;;20.10;47.40;;;;;;5059038;28;20222;-79
2023/10/17 09:33:31;;;;;;;4.43;4.03;;;20.10;46.80;;;;;;5059103;28;20210;-79
2023/10/17 09:35:59;;;;;;;4.47;3.75;;;20.20;45.90;;;;;;5059433;28;20195;-79
2023/10/17 09:38:27;;;;;;;4.22;3.83;;;20.20;46.60;;;;;;5059455;28;20666;-79
2023/10/17 09:40:55;;;;;;;4.32;3.70;;;20.20;46.40;;;;;;5059713;28;20206;-79
2023/10/17 09:43:22;;;;;;;4.00;3.40;;;20.20;46.80;;;;;;5060544;28;20197;-79
2023/10/17 09:45:50;;;;;;;4.65;4.15;;;20.30;46.80;;;;;;5043459;28;20198;-79
2023/10/17 09:48:18;;;;;;;4.60;3.60;;;20.30;46.50;;;;;;5077778;28;20191;-79
2023/10/17 09:50:46;;;;;;;4.47;3.25;;;20.30;46.60;;;;;;5051585;28;20783;-79
2023/10/17 09:53:16;;;;;;;4.57;4.03;;;20.30;46.60;;;;;;5058900;28;20313;-79
2023/10/17 09:55:46;;;;;;;3.30;2.97;;;20.30;46.50;;;;;;5058373;28;20198;-78
2023/10/17 09:58:13;;;;;;;4.10;3.72;;;20.30;46.90;;;;;;5057959;28;20190;-78
2023/10/17 10:00:41;;;;;;;3.70;3.38;;;20.30;47.00;;;;;;5059318;28;20309;-78
2023/10/17 10:03:09;;;;;;;3.63;3.33;;;20.30;47.10;;;;;;5056176;28;20579;-78
2023/10/17 10:05:36;;;;;;;4.03;3.50;;;20.40;47.10;;;;;;5033525;28;20225;-78
2023/10/17 10:08:26;;;;;;;5.50;4.63;;;20.40;47.10;;;;;;5058623;28;20585;-78
2023/10/17 10:10:55;;;;;;;4.40;4.00;;;20.40;47.90;;;;;;5059399;28;20222;-77
2023/10/17 10:13:22;;;;;;;7.68;4.22;;;20.40;47.80;;;;;;5077473;28;20290;-80
2023/10/17 10:15:53;;;;;;;5.32;4.18;;;20.50;46.90;;;;;;5059407;28;20218;-80
2023/10/17 10:18:57;;;;;;;4.38;3.65;;;20.50;47.50;;;;;;5077109;28;20191;-81
2023/10/17 10:21:54;;;;;;;3.38;2.63;;;20.50;46.90;;;;;;5061503;28;20198;-80
2023/10/17 10:24:26;;;;;;;3.22;2.90;;;20.50;47.40;;;;;;5061136;28;20206;-80
2023/10/17 10:27:23;;;;;;;4.93;4.30;;;20.50;46.60;;;;;;5060406;28;20187;-80
2023/10/17 10:29:52;;;;;;;4.80;3.20;;;20.50;45.60;;;;;;5060714;28;20218;-80
2023/10/17 10:32:38;;;;;;;4.65;3.60;;;20.50;47.30;;;;;;5060640;28;20306;-80
2023/10/17 10:35:06;;;;;;;4.68;3.67;;;20.50;46.20;;;;;;5059497;28;20195;-80
2023/10/17 10:37:35;;;;;;;5.80;3.95;;;20.50;46.10;;;;;;5059217;28;20633;-80
2023/10/17 10:40:16;;;;;;;7.25;3.40;;;20.50;45.60;;;;;;5059134;28;20214;-80
2023/10/17 10:42:44;;;;;;;6.25;3.97;;;20.50;46.20;;;;;;5043560;28;20218;-80
2023/10/17 10:45:29;;;;;;;7.78;3.63;;;20.50;45.80;;;;;;5059439;28;20203;-80
2023/10/17 10:47:59;;;;;;;6.28;4.63;;;20.50;46.00;;;;;;5058961;28;20195;-80
2023/10/17 10:50:29;;;;;;;7.50;4.57;;;20.60;45.70;;;;;;5058435;28;20222;-79
2023/10/17 10:52:57;;;;;;;5.28;3.60;;;20.60;45.50;;;;;;5057506;28;20221;-79
2023/10/17 10:55:30;;;;;;;5.68;4.22;;;20.60;45.70;;;;;;5058858;28;20202;-79
2023/10/17 10:58:00;;;;;;;4.57;3.50;;;20.60;45.50;;;;;;5042559;28;20199;-80
2023/10/17 11:00:28;;;;;;;8.32;3.90;;;20.60;45.50;;;;;;5058445;28;20215;-80
2023/10/17 11:02:56;;;;;;;7.82;4.28;;;20.60;45.80;;;;;;5058656;28;20198;-80
2023/10/17 11:05:23;;;;;;;5.60;4.10;;;20.60;46.00;;;;;;5058988;28;20202;-80
2023/10/17 11:08:00;;;;;;;5.43;3.60;;;20.60;45.70;;;;;;5042694;28;20209;-80
2023/10/17 11:10:31;;;;;;;5.05;4.10;;;20.60;45.80;;;;;;5044470;28;20230;-80
2023/10/17 11:12:59;;;;;;;3.80;3.13;;;20.60;46.00;;;;;;5059353;28;20236;-80
2023/10/17 11:15:30;;;;;;;5.93;3.80;;;20.60;45.90;;;;;;5059835;28;20278;-80
2023/10/17 11:18:01;;;;;;;5.05;3.67;;;20.60;45.60;;;;;;5060536;28;20689;-80
2023/10/17 11:20:28;;;;;;;5.07;3.80;;;20.60;45.50;;;;;;5042764;28;20309;-80
2023/10/17 11:22:55;;;;;;;7.10;4.15;;;20.60;45.80;;;;;;5059936;28;20300;-80
2023/10/17 11:25:26;;;;;;;6.32;3.30;;;20.70;45.20;;;;;;5059721;28;20199;-80
2023/10/17 11:27:56;;;;;;;4.28;3.88;;;20.60;45.40;;;;;;5058680;28;20221;-81
2023/10/17 11:30:32;;;;;;;4.28;3.60;;;20.70;45.60;;;;;;5040143;28;20264;-80
2023/10/17 11:33:04;;;;;;;5.40;3.70;;;20.70;45.80;;;;;;5058820;28;20218;-80
2023/10/17 11:35:34;;;;;;;4.60;3.53;;;20.70;45.70;;;;;;5058770;28;20272;-80
2023/10/17 11:38:01;;;;;;;5.07;3.97;;;20.70;45.50;;;;;;5055811;28;20293;-79
2023/10/17 11:40:43;;;;;;;5.13;3.55;;;20.70;45.20;;;;;;5039561;28;20220;-79
2023/10/17 11:43:17;;;;;;;4.78;3.47;;;20.80;45.30;;;;;;5057042;28;20191;-79
2023/10/17 11:45:45;;;;;;;3.85;3.13;;;20.80;45.80;;;;;;5057336;28;20195;-79
2023/10/17 11:48:28;;;;;;;3.50;3.20;;;20.80;45.70;;;;;;5056712;28;20202;-79
2023/10/17 11:51:06;;;;;;;3.80;3.35;;;20.80;45.80;;;;;;5057362;28;20234;-79
2023/10/17 11:53:33;;;;;;;5.53;3.13;;;20.80;45.80;;;;;;5056449;28;20210;-79
2023/10/17 11:56:01;;;;;;;3.90;3.25;;;20.90;45.90;;;;;;5056465;28;20256;-79
2023/10/17 11:58:30;;;;;;;3.97;3.30;;;20.90;45.50;;;;;;5056700;28;20194;-79
2023/10/17 12:00:57;;;;;;;5.57;3.65;;;20.90;45.60;;;;;;5056707;28;20222;-79
2023/10/17 12:03:26;;;;;;;4.15;3.17;;;20.80;45.80;;;;;;5056714;28;20784;-79
2023/10/17 12:05:54;;;;;;;3.53;3.22;;;20.80;45.90;;;;;;5056538;28;20205;-79
2023/10/17 12:08:29;;;;;;;3.55;2.97;;;20.80;45.80;;;;;;5056559;28;20198;-79
2023/10/17 12:10:57;;;;;;;4.60;3.22;;;20.80;45.90;;;;;;5046600;28;20222;-79
2023/10/17 12:13:26;;;;;;;3.58;3.28;;;20.80;45.70;;;;;;5056841;28;20615;-79
2023/10/17 12:15:56;;;;;;;5.30;3.65;;;20.80;46.40;;;;;;5057343;28;20229;-79
2023/10/17 12:18:25;;;;;;;3.80;3.40;;;20.80;45.30;;;;;;5056757;28;20232;-79
2023/10/17 12:20:55;;;;;;;3.72;3.42;;;20.80;45.30;;;;;;5056308;28;20234;-79
2023/10/17 12:23:29;;;;;;;6.18;3.13;;;20.80;45.20;;;;;;5056680;28;20261;-79
2023/10/17 12:26:01;;;;;;;4.90;3.35;;;20.80;46.30;;;;;;5056975;28;20321;-79
2023/10/17 12:28:30;;;;;;;5.68;3.45;;;20.90;45.60;;;;;;5040721;28;20278;-79
2023/10/17 12:30:58;;;;;;;6.63;3.90;;;20.90;45.40;;;;;;5056633;28;20226;-79
2023/10/17 12:33:27;;;;;;;2.92;2.25;;;20.90;45.20;;;;;;5056455;28;20245;-79
2023/10/17 12:35:54;;;;;;;5.38;4.10;;;20.90;46.00;;;;;;5044888;28;20187;-79
2023/10/17 12:38:33;;;;;;;7.28;3.75;;;20.90;45.20;;;;;;5056793;28;20205;-79
2023/10/17 12:41:00;;;;;;;5.97;3.45;;;20.90;45.40;;;;;;5056716;28;20225;-79
2023/10/17 12:43:27;;;;;;;8.70;3.70;;;20.90;45.50;;;;;;5055834;28;20197;-78
2023/10/17 12:45:55;;;;;;;3.33;2.92;;;20.90;45.70;;;;;;5055587;28;20194;-78
2023/10/17 12:48:24;;;;;;;3.95;3.25;;;20.90;45.80;;;;;;5054443;28;20199;-78
2023/10/17 12:50:51;;;;;;;8.05;3.50;;;20.90;45.80;;;;;;5054608;28;20207;-77
2023/10/17 12:53:18;;;;;;;3.92;3.25;;;20.90;45.90;;;;;;5055459;28;20214;-77
2023/10/17 12:55:46;;;;;;;5.25;3.03;;;20.90;45.90;;;;;;5039061;28;20269;-77
2023/10/17 12:58:18;;;;;;;4.57;2.97;;;20.90;45.80;;;;;;5055362;28;20186;-77
2023/10/17 13:00:47;;;;;;;3.72;3.00;;;20.90;45.70;;;;;;5055462;28;20328;-77
2023/10/17 13:03:14;;;;;;;6.82;3.40;;;20.90;45.80;;;;;;5055591;28;20199;-77
2023/10/17 13:05:43;;;;;;;3.90;3.50;;;20.90;45.50;;;;;;5055362;28;20278;-77
2023/10/17 13:08:10;;;;;;;4.95;3.10;;;21.00;45.20;;;;;;5073203;28;20190;-77
2023/10/17 13:10:37;;;;;;;3.80;2.83;;;20.90;45.80;;;;;;5055696;28;20215;-78
2023/10/17 13:13:05;;;;;;;4.88;3.10;;;20.90;45.70;;;;;;5055831;28;20241;-78
2023/10/17 13:15:32;;;;;;;4.35;3.13;;;20.90;45.70;;;;;;5055593;28;20201;-78
2023/10/17 13:18:03;;;;;;;3.35;2.95;;;20.90;45.60;;;;;;5055455;28;20679;-78
2023/10/17 13:20:32;;;;;;;3.53;3.08;;;20.90;45.70;;;;;;5055845;28;20215;-76
2023/10/17 13:23:03;;;;;;;3.47;3.13;;;20.90;45.70;;;;;;5055753;28;20249;-77
2023/10/17 13:25:34;;;;;;;3.55;3.20;;;20.90;45.80;;;;;;5056000;28;20199;-77
2023/10/17 13:28:02;;;;;;;3.47;3.17;;;20.80;45.80;;;;;;5055388;28;20195;-77
2023/10/17 13:30:29;;;;;;;3.30;2.70;;;20.80;45.80;;;;;;5055183;28;20210;-77
2023/10/17 13:32:56;;;;;;;3.40;2.72;;;20.80;45.80;;;;;;5056417;28;20289;-77
2023/10/17 13:35:24;;;;;;;5.10;3.45;;;20.80;46.20;;;;;;5059193;28;20293;-77
2023/10/17 13:37:55;;;;;;;3.92;2.97;;;20.80;46.00;;;;;;5058877;28;20195;-77
2023/10/17 13:40:25;;;;;;;4.00;3.28;;;20.80;46.00;;;;;;5058859;28;20787;-77
2023/10/17 13:42:53;;;;;;;4.38;3.50;;;20.80;46.00;;;;;;5058784;28;20289;-77
2023/10/17 13:45:22;;;;;;;4.70;3.38;;;20.80;45.90;;;;;;5058640;28;20252;-77
2023/10/17 13:47:50;;;;;;;4.07;2.90;;;20.80;46.00;;;;;;5059204;28;20205;-77
2023/10/17 13:50:18;;;;;;;3.50;3.20;;;20.80;46.00;;;;;;5058775;28;20268;-77
2023/10/17 13:52:46;;;;;;;3.50;3.20;;;20.80;46.10;;;;;;5058965;28;20752;-77
2023/10/17 13:55:23;;;;;;;3.38;2.83;;;20.70;46.10;;;;;;5058851;28;20223;-77
2023/10/17 13:57:55;;;;;;;3.80;2.90;;;20.70;46.20;;;;;;5058794;28;20194;-77
2023/10/17 14:00:24;;;;;;;3.05;2.75;;;20.70;46.10;;;;;;5058666;28;20301;-77
2023/10/17 14:02:51;;;;;;;3.30;3.00;;;20.70;46.30;;;;;;5059865;28;20218;-77
2023/10/17 14:05:19;;;;;;;3.08;2.88;;;20.70;46.30;;;;;;5058967;28;20198;-77
2023/10/17 14:07:51;;;;;;;3.10;2.80;;;20.70;46.20;;;;;;5058864;28;20229;-77
2023/10/17 14:10:24;;;;;;;5.50;3.45;;;20.70;46.20;;;;;;5059096;28;20765;-77
2023/10/17 14:12:53;;;;;;;4.40;3.50;;;20.70;46.10;;;;;;5043006;28;20205;-77
2023/10/17 14:15:20;;;;;;;5.53;3.42;;;20.70;46.30;;;;;;5059615;28;20321;-77
2023/10/17 14:17:49;;;;;;;4.30;3.25;;;20.70;46.30;;;;;;5058357;28;20211;-77
2023/10/17 14:20:18;;;;;;;3.90;3.60;;;20.70;46.30;;;;;;5057898;28;20333;-77
2023/10/17 14:23:11;;;;;;;3.92;3.40;;;20.70;46.30;;;;;;5057961;28;20602;-77
2023/10/17 14:28:25;;;;;;;3.42;3.00;;;20.70;46.30;;;;;;5057949;28;20564;-77
2023/10/17 14:30:51;;;;;;;3.55;2.83;;;20.70;46.30;;;;;;5057833;28;20215;-77
2023/10/17 14:33:19;;;;;;;3.20;2.90;;;20.70;45.90;;;;;;5057725;28;20205;-77
2023/10/17 14:35:48;;;;;;;3.47;2.90;;;20.70;46.30;;;;;;5057798;28;20569;-77
2023/10/17 14:38:16;;;;;;;3.58;2.92;;;20.60;46.20;;;;;;5058798;28;20595;-77
2023/10/17 14:40:43;;;;;;;3.53;2.67;;;20.60;46.20;;;;;;5075827;28;20219;-77
2023/10/17 14:43:12;;;;;;;3.90;2.90;;;20.60;46.30;;;;;;5075290;28;20186;-77
2023/10/17 14:45:41;;;;;;;3.28;2.75;;;20.60;46.30;;;;;;5057886;28;20218;-77
2023/10/17 14:48:09;;;;;;;3.55;2.58;;;20.60;46.30;;;;;;5057469;28;20255;-77
2023/10/17 14:50:36;;;;;;;2.80;2.60;;;20.70;46.30;;;;;;5057531;28;20677;-77